createdAt,value
2019-04-11T00:00:57.989Z,15.60
2019-04-11T00:03:27.156Z,15.60
2019-04-11T00:05:55.630Z,17.50
2019-04-11T00:08:24.068Z,18.20
2019-04-11T00:10:53.536Z,18.63
2019-04-11T00:13:25.632Z,15.63
2019-04-11T00:15:52.949Z,14.33
2019-04-11T00:18:22.773Z,13.83
2019-04-11T00:20:52.630Z,15.83
2019-04-11T00:23:21.815Z,16.77
2019-04-11T00:25:51.441Z,17.00
2019-04-11T00:28:20.213Z,15.70
2019-04-11T00:30:48.652Z,15.03
2019-04-11T00:33:18.127Z,13.60
2019-04-11T00:35:46.788Z,15.77
2019-04-11T00:38:16.492Z,15.20
2019-04-11T00:40:45.825Z,18.80
2019-04-11T00:43:26.769Z,12.47
2019-04-11T00:45:45.562Z,15.80
2019-04-11T00:48:14.430Z,21.43
2019-04-11T00:50:43.345Z,13.33
2019-04-11T00:53:11.945Z,17.07
2019-04-11T00:55:40.425Z,18.17
2019-04-11T00:58:09.620Z,15.67
2019-04-11T01:00:39.783Z,16.47
2019-04-11T01:03:09.637Z,19.10
2019-04-11T01:05:39.340Z,16.70
2019-04-11T01:08:08.314Z,16.70
2019-04-11T01:10:36.754Z,16.60
2019-04-11T01:13:07.062Z,17.17
2019-04-11T01:15:36.809Z,15.10
2019-04-11T01:18:05.602Z,18.33
2019-04-11T01:20:53.735Z,14.73
2019-04-11T01:23:22.770Z,15.80
2019-04-11T01:25:52.735Z,18.60
2019-04-11T01:28:21.184Z,16.60
2019-04-11T01:30:54.139Z,17.57
2019-04-11T01:33:22.572Z,17.53
2019-04-11T01:35:51.008Z,17.03
2019-04-11T01:38:21.345Z,18.07
2019-04-11T01:40:49.840Z,25.23
2019-04-11T01:43:18.319Z,22.07
2019-04-11T01:45:46.740Z,19.93
2019-04-11T01:48:17.481Z,16.97
2019-04-11T01:50:45.986Z,16.43
2019-04-11T01:53:15.161Z,20.10
2019-04-11T01:55:44.935Z,18.73
2019-04-11T01:58:14.218Z,19.90
2019-04-11T02:00:44.492Z,17.20
2019-04-11T02:03:30.879Z,21.53
2019-04-11T02:05:59.404Z,16.03
2019-04-11T02:08:27.853Z,14.30
2019-04-11T02:10:57.122Z,15.60
2019-04-11T02:13:25.934Z,17.40
2019-04-11T02:15:56.847Z,16.53
2019-04-11T02:18:25.576Z,17.30
2019-04-11T02:20:54.356Z,15.20
2019-04-11T02:23:24.892Z,16.63
2019-04-11T02:26:05.045Z,16.77
2019-04-11T02:28:34.865Z,16.37
2019-04-11T02:31:05.421Z,18.70
2019-04-11T02:33:34.860Z,18.03
2019-04-11T02:36:05.092Z,20.93
2019-04-11T02:38:34.795Z,17.93
2019-04-11T02:41:05.949Z,17.77
2019-04-11T02:43:34.763Z,14.90
2019-04-11T02:46:11.834Z,18.93
2019-04-11T02:48:35.527Z,17.57
2019-04-11T02:51:05.718Z,18.40
2019-04-11T02:53:36.648Z,22.20
2019-04-11T02:56:06.330Z,19.93
2019-04-11T02:58:36.926Z,20.07
2019-04-11T03:01:07.914Z,16.10
2019-04-11T03:03:37.352Z,18.13
2019-04-11T03:06:07.051Z,17.93
2019-04-11T03:08:36.736Z,20.57
2019-04-11T03:11:07.766Z,17.17
2019-04-11T03:13:38.155Z,23.53
2019-04-11T03:16:23.290Z,23.77
2019-04-11T03:18:57.377Z,22.07
2019-04-11T03:21:13.762Z,20.37
2019-04-11T03:23:38.100Z,19.40
2019-04-11T03:26:09.854Z,23.63
2019-04-11T03:28:57.800Z,21.50
2019-04-11T03:32:05.304Z,21.73
2019-04-11T03:39:15.663Z,20.97
2019-04-11T03:41:45.443Z,20.77
2019-04-11T03:44:04.255Z,23.17
2019-04-11T03:46:44.984Z,21.47
2019-04-11T03:49:06.195Z,23.40
2019-04-11T03:51:29.691Z,20.30
2019-04-11T03:53:59.114Z,23.70
2019-04-11T03:56:28.664Z,24.10
2019-04-11T03:58:57.884Z,22.80
2019-04-11T04:01:27.109Z,24.03
2019-04-11T04:03:55.987Z,24.17
2019-04-11T04:06:25.528Z,23.37
2019-04-11T04:08:55.582Z,21.57
2019-04-11T04:11:29.545Z,23.63
2019-04-11T04:14:36.956Z,20.40
2019-04-11T04:17:19.734Z,25.77
2019-04-11T04:19:54.482Z,21.53
2019-04-11T04:22:29.384Z,26.70
2019-04-11T04:24:58.892Z,28.80
2019-04-11T04:27:28.119Z,22.57
2019-04-11T04:29:58.519Z,27.63
2019-04-11T04:32:28.005Z,58.37
2019-04-11T04:34:58.378Z,35.00
2019-04-11T04:37:47.463Z,28.63
2019-04-11T04:40:31.390Z,32.20
2019-04-11T04:42:51.000Z,51.27
2019-04-11T04:45:17.143Z,51.40
2019-04-11T04:47:51.428Z,30.90
2019-04-11T04:50:15.726Z,28.33
2019-04-11T04:52:45.013Z,26.47
2019-04-11T04:55:13.604Z,23.40
2019-04-11T04:57:42.972Z,26.50
2019-04-11T05:00:14.089Z,30.87
2019-04-11T05:02:44.076Z,34.23
2019-04-11T05:05:13.638Z,56.70
2019-04-11T05:07:44.817Z,41.07
2019-04-11T05:10:13.468Z,29.53
2019-04-11T05:12:42.061Z,32.67
2019-04-11T05:15:12.077Z,29.17
2019-04-11T05:17:43.597Z,42.73
2019-04-11T05:20:11.945Z,26.57
2019-04-11T05:22:41.504Z,27.03
2019-04-11T05:25:10.696Z,32.47
2019-04-11T05:27:39.806Z,65.73
2019-04-11T05:30:09.364Z,57.53
2019-04-11T05:32:37.902Z,41.50
2019-04-11T05:35:06.997Z,36.57
2019-04-11T05:37:36.332Z,33.83
2019-04-11T05:40:07.333Z,40.03
2019-04-11T05:42:36.006Z,37.00
2019-04-11T05:45:06.197Z,32.07
2019-04-11T05:47:35.466Z,29.90
2019-04-11T05:52:44.227Z,30.60
2019-04-11T05:55:13.795Z,31.00
2019-04-11T05:57:46.748Z,23.23
2019-04-11T06:00:21.408Z,25.87
2019-04-11T06:02:57.986Z,24.57
2019-04-11T06:08:25.455Z,23.07
2019-04-11T06:10:52.533Z,27.40
2019-04-11T06:13:22.774Z,28.20
2019-04-11T06:15:59.373Z,22.60
2019-04-11T06:18:52.877Z,27.63
2019-04-11T06:21:24.060Z,23.77
2019-04-11T06:23:57.367Z,22.70
2019-04-11T06:26:44.962Z,22.47
2019-04-11T06:29:28.392Z,24.20
2019-04-11T06:35:16.675Z,21.00
2019-04-11T06:37:49.914Z,22.63
2019-04-11T06:40:26.418Z,26.17
2019-04-11T06:42:57.665Z,20.77
2019-04-11T06:45:44.270Z,24.87
2019-04-11T06:48:14.333Z,18.60
2019-04-11T06:50:47.236Z,25.90
2019-04-11T06:53:17.277Z,23.70
2019-04-11T06:55:57.317Z,21.67
2019-04-11T06:58:30.291Z,23.87
2019-04-11T07:01:01.323Z,19.97
2019-04-11T07:03:32.408Z,21.57
2019-04-11T07:06:03.315Z,22.57
2019-04-11T07:08:34.187Z,18.00
2019-04-11T07:11:19.911Z,17.57
2019-04-11T07:13:53.300Z,23.73
2019-04-11T07:16:21.979Z,20.07
2019-04-11T07:19:01.138Z,30.10
2019-04-11T07:21:31.217Z,21.43
2019-04-11T07:24:18.189Z,24.40
2019-04-11T07:26:47.954Z,20.40
2019-04-11T07:29:24.105Z,23.20
2019-04-11T07:31:57.119Z,28.13
2019-04-11T07:34:43.563Z,17.40
2019-04-11T07:37:32.631Z,18.17
2019-04-11T07:40:15.600Z,29.10
2019-04-11T07:42:52.956Z,20.67
2019-04-11T07:45:26.412Z,20.37
2019-04-11T07:48:08.754Z,26.03
2019-04-11T07:50:37.344Z,25.07
2019-04-11T07:53:08.575Z,21.10
2019-04-11T07:55:38.800Z,16.27
2019-04-11T07:58:19.731Z,17.60
2019-04-11T08:00:54.134Z,13.37
2019-04-11T08:03:25.542Z,17.90
2019-04-11T08:06:05.227Z,16.17
2019-04-11T08:08:36.681Z,14.50
2019-04-11T08:11:09.734Z,10.57
2019-04-11T08:13:57.886Z,17.40
2019-04-11T08:16:46.893Z,12.30
2019-04-11T08:19:33.387Z,13.83
2019-04-11T08:22:09.152Z,19.07
2019-04-11T08:24:39.241Z,17.53
2019-04-11T08:27:27.657Z,11.80
2019-04-11T08:29:58.273Z,10.03
2019-04-11T08:32:44.903Z,16.17
2019-04-11T08:35:33.159Z,17.10
2019-04-11T08:38:09.931Z,13.87
2019-04-11T08:40:47.154Z,9.17
2019-04-11T08:43:26.902Z,8.03
2019-04-11T08:45:58.249Z,14.03
2019-04-11T08:48:28.892Z,16.40
2019-04-11T08:50:59.136Z,14.10
2019-04-11T08:53:35.402Z,11.07
2019-04-11T08:56:05.457Z,12.50
2019-04-11T08:58:38.534Z,8.33
2019-04-11T09:01:08.588Z,9.73
2019-04-11T09:04:04.618Z,8.73
2019-04-11T09:06:28.615Z,24.70
2019-04-11T09:09:01.338Z,6.87
2019-04-11T09:11:32.964Z,9.70
2019-04-11T09:14:19.983Z,6.47
2019-04-11T09:17:06.438Z,11.27
2019-04-11T09:19:45.492Z,13.23
2019-04-11T09:22:27.506Z,17.45
2019-04-11T09:24:57.590Z,18.47
2019-04-11T09:27:31.191Z,12.17
2019-04-11T09:30:04.553Z,12.40
2019-04-11T09:32:44.445Z,11.60
2019-04-11T09:35:29.706Z,11.37
2019-04-11T09:38:06.390Z,12.07
2019-04-11T09:40:45.826Z,28.85
2019-04-11T09:43:19.623Z,14.40
2019-04-11T09:45:50.945Z,16.52
2019-04-11T09:48:37.806Z,15.13
2019-04-11T09:51:26.482Z,12.45
2019-04-11T09:54:01.883Z,9.43
2019-04-11T09:56:50.101Z,16.42
2019-04-11T09:59:27.195Z,10.90
2019-04-11T10:02:16.847Z,10.18
2019-04-11T10:04:48.081Z,8.13
2019-04-11T10:07:28.131Z,24.43
2019-04-11T10:10:04.743Z,10.10
2019-04-11T10:13:10.854Z,13.13
2019-04-11T10:15:41.052Z,28.67
2019-04-11T10:18:27.802Z,24.90
2019-04-11T10:20:53.574Z,13.03
2019-04-11T10:23:42.980Z,13.75
2019-04-11T10:26:11.896Z,15.32
2019-04-11T10:28:54.310Z,11.20
2019-04-11T10:31:22.782Z,12.07
2019-04-11T10:33:59.531Z,13.53
2019-04-11T10:36:29.795Z,10.53
2019-04-11T10:39:11.793Z,14.30
2019-04-11T10:41:44.588Z,9.78
2019-04-11T10:44:15.889Z,10.90
2019-04-11T10:46:52.410Z,8.53
2019-04-11T10:49:39.340Z,12.00
2019-04-11T10:52:22.558Z,9.60
2019-04-11T10:55:05.187Z,10.93
2019-04-11T10:57:50.397Z,49.65
2019-04-11T11:00:20.978Z,12.55
2019-04-11T11:02:57.846Z,15.40
2019-04-11T11:05:28.380Z,12.82
2019-04-11T11:07:59.268Z,18.55
2019-04-11T11:10:29.437Z,13.80
2019-04-11T11:13:18.085Z,11.03
2019-04-11T11:15:49.706Z,13.58
2019-04-11T11:18:54.087Z,10.28
2019-04-11T11:20:54.996Z,9.60
2019-04-11T11:23:38.481Z,15.70
2019-04-11T11:26:10.998Z,13.03
2019-04-11T11:28:47.046Z,13.85
2019-04-11T11:31:18.134Z,17.73
2019-04-11T11:33:46.960Z,9.40
2019-04-11T11:42:08.184Z,14.53
2019-04-11T11:44:57.258Z,17.50
2019-04-11T11:47:44.813Z,11.08
2019-04-11T11:50:20.382Z,8.83
2019-04-11T11:52:51.118Z,9.33
2019-04-11T11:55:21.839Z,11.60
2019-04-11T11:57:53.103Z,9.80
2019-04-11T12:00:23.665Z,9.75
2019-04-11T12:02:54.390Z,22.25
2019-04-11T12:05:26.890Z,12.65
2019-04-11T12:08:16.435Z,9.33
2019-04-11T12:13:40.824Z,11.50
2019-04-11T12:16:23.764Z,11.55
2019-04-11T12:18:56.902Z,14.90
2019-04-11T12:21:29.360Z,11.90
2019-04-11T12:24:15.458Z,10.13
2019-04-11T12:27:02.284Z,8.50
2019-04-11T12:29:36.401Z,7.83
2019-04-11T12:32:10.304Z,19.12
2019-04-11T12:34:41.028Z,15.30
2019-04-11T12:37:14.856Z,9.35
2019-04-11T12:39:44.531Z,10.88
2019-04-11T12:42:17.304Z,9.10
2019-04-11T12:44:47.384Z,10.05
2019-04-11T12:47:23.982Z,14.40
2019-04-11T12:49:54.146Z,9.88
2019-04-11T12:52:42.723Z,13.17
2019-04-11T12:55:32.465Z,16.07
2019-04-11T12:58:18.908Z,12.40
2019-04-11T13:01:07.033Z,8.30
2019-04-11T13:03:53.447Z,12.70
2019-04-11T13:06:35.247Z,13.98
2019-04-11T13:09:18.610Z,10.18
2019-04-11T13:11:51.382Z,11.75
2019-04-11T13:14:30.627Z,14.10
2019-04-11T13:17:07.024Z,16.32
2019-04-11T13:19:38.629Z,11.20
2019-04-11T13:22:08.873Z,13.13
2019-04-11T13:24:55.454Z,12.63
2019-04-11T13:27:25.838Z,11.35
2019-04-11T13:30:04.939Z,13.88
2019-04-11T13:32:35.187Z,12.15
2019-04-11T13:35:06.867Z,8.15
2019-04-11T13:37:53.634Z,9.60
2019-04-11T13:43:24.367Z,13.00
2019-04-11T13:46:11.187Z,14.27
2019-04-11T13:48:57.245Z,14.47
2019-04-11T13:51:30.321Z,11.93
2019-04-11T13:54:17.126Z,11.27
2019-04-11T13:57:03.724Z,11.53
2019-04-11T13:59:42.398Z,10.00
2019-04-11T14:02:15.066Z,13.80
2019-04-11T14:04:50.939Z,10.30
2019-04-11T14:07:23.421Z,13.60
2019-04-11T14:10:05.491Z,10.40
2019-04-11T14:12:34.130Z,14.10
2019-04-11T14:15:10.240Z,10.13
2019-04-11T14:17:56.948Z,12.88
2019-04-11T14:20:30.353Z,14.83
2019-04-11T14:23:03.166Z,11.47
2019-04-11T14:25:50.737Z,10.00
2019-04-11T14:28:20.851Z,6.60
2019-04-11T14:30:52.515Z,8.78
2019-04-11T14:33:23.585Z,8.55
2019-04-11T14:35:59.125Z,7.80
2019-04-11T14:38:32.016Z,9.50
2019-04-11T14:41:17.215Z,9.43
2019-04-11T14:43:47.555Z,7.47
2019-04-11T14:46:36.512Z,7.78
2019-04-11T14:49:05.707Z,9.77
2019-04-11T14:51:43.900Z,7.37
2019-04-11T14:54:22.810Z,8.50
2019-04-11T14:56:53.039Z,10.72
2019-04-11T14:59:25.850Z,16.15
2019-04-11T15:01:55.944Z,7.83
2019-04-11T15:04:26.237Z,7.13
2019-04-11T15:06:56.414Z,9.28
2019-04-11T15:09:46.487Z,8.05
2019-04-11T15:12:23.656Z,9.07
2019-04-11T15:15:19.884Z,11.30
2019-04-11T15:17:49.454Z,7.33
2019-04-11T15:20:25.694Z,15.67
2019-04-11T15:22:55.844Z,7.13
2019-04-11T15:25:25.994Z,12.07
2019-04-11T15:27:56.081Z,7.77
2019-04-11T15:30:28.822Z,7.17
2019-04-11T15:33:01.355Z,9.33
2019-04-11T15:35:29.864Z,8.87
2019-04-11T15:38:19.410Z,5.70
2019-04-11T15:40:48.895Z,8.47
2019-04-11T15:43:21.616Z,12.00
2019-04-11T15:45:51.688Z,5.63
2019-04-11T15:48:40.091Z,13.40
2019-04-11T15:51:10.163Z,8.27
2019-04-11T15:53:46.204Z,5.57
2019-04-11T15:56:32.756Z,5.90
2019-04-11T15:59:08.630Z,10.20
2019-04-11T16:02:14.194Z,10.03
2019-04-11T16:04:46.838Z,9.07
2019-04-11T16:07:23.009Z,4.50
2019-04-11T16:09:53.333Z,7.27
2019-04-11T16:12:35.144Z,8.27
2019-04-11T16:15:24.548Z,5.23
2019-04-11T16:17:54.638Z,11.17
2019-04-11T16:20:24.227Z,10.20
2019-04-11T16:22:55.356Z,9.37
2019-04-11T16:25:28.740Z,5.20
2019-04-11T16:28:12.959Z,7.07
2019-04-11T16:30:43.108Z,4.77
2019-04-11T16:33:13.194Z,3.40
2019-04-11T16:35:52.342Z,3.50
2019-04-11T16:38:38.747Z,6.67
2019-04-11T16:41:25.118Z,6.13
2019-04-11T16:44:04.340Z,6.07
2019-04-11T16:46:34.600Z,7.27
2019-04-11T16:49:03.100Z,5.73
2019-04-11T16:51:31.594Z,5.47
2019-04-11T16:54:00.047Z,5.77
2019-04-11T16:56:28.561Z,9.13
2019-04-11T16:58:57.142Z,9.30
2019-04-11T17:01:25.661Z,6.60
2019-04-11T17:03:55.134Z,4.90
2019-04-11T17:06:32.056Z,5.50
2019-04-11T17:09:02.273Z,6.40
2019-04-11T17:11:30.935Z,5.40
2019-04-11T17:13:59.421Z,8.13
2019-04-11T17:16:30.327Z,6.00
2019-04-11T17:18:58.122Z,8.70
2019-04-11T17:21:27.014Z,8.17
2019-04-11T17:23:55.871Z,5.73
2019-04-11T17:26:24.544Z,7.00
2019-04-11T17:28:54.520Z,4.87
2019-04-11T17:31:25.674Z,7.43
2019-04-11T17:33:56.684Z,5.07
2019-04-11T17:36:26.375Z,7.53
2019-04-11T17:38:54.921Z,6.07
2019-04-11T17:41:23.378Z,11.47
2019-04-11T17:43:51.977Z,7.13
2019-04-11T17:46:20.514Z,9.77
2019-04-11T17:48:50.441Z,9.67
2019-04-11T17:51:19.311Z,11.70
2019-04-11T17:53:47.989Z,23.43
2019-04-11T17:56:16.740Z,25.67
2019-04-11T17:58:48.064Z,47.07
2019-04-11T18:01:19.892Z,60.23
2019-04-11T18:03:48.347Z,39.97
2019-04-11T18:06:17.721Z,14.80
2019-04-11T18:08:46.743Z,8.70
2019-04-11T18:11:15.914Z,23.43
2019-04-11T18:13:44.872Z,28.77
2019-04-11T18:16:13.523Z,10.87
2019-04-11T18:19:01.377Z,5.70
2019-04-11T18:21:29.981Z,4.60
2019-04-11T18:23:58.814Z,4.57
2019-04-11T18:26:27.370Z,7.57
2019-04-11T18:28:56.086Z,5.90
2019-04-11T18:31:25.575Z,6.10
2019-04-11T18:33:54.458Z,4.97
2019-04-11T18:36:22.939Z,5.37
2019-04-11T18:39:11.027Z,6.57
2019-04-11T18:41:39.627Z,6.57
2019-04-11T18:44:08.262Z,4.60
2019-04-11T18:46:36.747Z,3.50
2019-04-11T18:49:05.446Z,4.03
2019-04-11T18:51:35.565Z,13.47
2019-04-11T18:54:04.024Z,50.37
2019-04-11T19:02:10.324Z,7.27
2019-04-11T19:04:42.036Z,4.40
2019-04-11T19:07:12.740Z,3.90
2019-04-11T19:09:43.426Z,3.10
2019-04-11T19:12:09.874Z,4.40
2019-04-11T19:14:38.301Z,3.90
2019-04-11T19:17:06.743Z,5.27
2019-04-11T19:19:35.210Z,4.33
2019-04-11T19:22:04.243Z,4.87
2019-04-11T19:24:35.697Z,4.30
2019-04-11T19:27:03.137Z,3.83
2019-04-11T19:29:31.811Z,6.53
2019-04-11T19:34:29.283Z,7.83
2019-04-11T19:36:57.914Z,20.27
2019-04-11T19:39:26.425Z,32.80
2019-04-11T19:41:54.968Z,10.17
2019-04-11T19:44:23.654Z,7.13
2019-04-11T19:46:52.148Z,7.57
2019-04-11T19:49:20.585Z,4.33
2019-04-11T19:51:50.876Z,4.90
2019-04-11T19:54:19.296Z,8.90
2019-04-11T19:56:49.601Z,4.17
2019-04-11T19:59:18.227Z,6.30
2019-04-11T20:01:46.912Z,7.53
2019-04-11T20:04:15.410Z,3.97
2019-04-11T20:06:43.923Z,14.43
2019-04-11T20:09:12.853Z,85.83
2019-04-11T20:11:41.322Z,31.50
2019-04-11T20:14:10.077Z,18.13
2019-04-11T20:16:41.909Z,7.93
2019-04-11T20:19:08.724Z,3.17
2019-04-11T20:21:38.365Z,4.53
2019-04-11T20:24:07.498Z,5.03
2019-04-11T20:26:36.148Z,3.63
2019-04-11T20:29:04.712Z,4.80
2019-04-11T20:31:33.304Z,6.13
2019-04-11T20:34:06.648Z,3.80
2019-04-11T20:36:33.698Z,4.47
2019-04-11T20:39:02.247Z,3.20
2019-04-11T20:41:30.696Z,3.93
2019-04-11T20:43:59.291Z,4.13
2019-04-11T20:46:29.179Z,4.43
2019-04-11T20:48:57.894Z,5.43
2019-04-11T20:51:26.479Z,4.40
2019-04-11T20:53:54.903Z,4.73
2019-04-11T20:56:24.577Z,3.97
2019-04-11T20:58:53.217Z,3.83
2019-04-11T21:01:23.781Z,5.27
2019-04-11T21:03:51.923Z,4.60
2019-04-11T21:06:20.615Z,3.70
2019-04-11T21:08:49.080Z,7.23
2019-04-11T21:11:18.757Z,5.27
2019-04-11T21:13:47.456Z,5.13
2019-04-11T21:16:15.888Z,4.67
2019-04-11T21:18:44.343Z,4.97
2019-04-11T21:21:19.613Z,5.27
2019-04-11T21:23:48.110Z,51.57
2019-04-11T21:26:16.563Z,30.63
2019-04-11T21:28:45.018Z,9.87
2019-04-11T21:31:13.453Z,5.10
2019-04-11T21:33:41.873Z,5.33
2019-04-11T21:36:31.726Z,3.60
2019-04-11T21:39:03.579Z,3.83
2019-04-11T21:41:30.177Z,10.50
2019-04-11T21:43:58.657Z,5.57
2019-04-11T21:46:27.112Z,6.60
2019-04-11T21:48:55.622Z,3.33
2019-04-11T21:51:24.130Z,4.47
2019-04-11T21:53:52.882Z,5.00
2019-04-11T21:56:21.410Z,3.83
2019-04-11T21:58:50.669Z,5.17
2019-04-11T22:01:22.018Z,5.63
2019-04-11T22:03:51.917Z,3.63
2019-04-11T22:06:21.560Z,4.57
2019-04-11T22:08:49.980Z,4.97
2019-04-11T22:11:18.412Z,4.23
2019-04-11T22:13:47.156Z,7.83
2019-04-11T22:16:15.623Z,4.13
2019-04-11T22:18:44.579Z,4.20
2019-04-11T22:21:15.540Z,5.17
2019-04-11T22:23:49.050Z,3.60
2019-04-11T22:26:13.761Z,5.27
2019-04-11T22:28:42.179Z,8.60
2019-04-11T22:31:10.634Z,4.80
2019-04-11T22:33:40.707Z,4.80
2019-04-11T22:36:09.200Z,3.93
2019-04-11T22:38:37.628Z,3.83
2019-04-11T22:41:06.055Z,4.23
2019-04-11T22:43:37.853Z,4.17
2019-04-11T22:46:07.706Z,4.10
2019-04-11T22:48:36.810Z,5.37
2019-04-11T22:51:05.071Z,3.60
2019-04-11T22:53:33.491Z,5.27
2019-04-11T22:56:02.172Z,4.97
2019-04-11T22:58:30.732Z,4.43
2019-04-11T23:00:59.147Z,4.83
2019-04-11T23:03:32.127Z,5.43
2019-04-11T23:06:00.553Z,4.53
2019-04-11T23:08:28.985Z,4.13
2019-04-11T23:10:57.420Z,5.37
2019-04-11T23:13:26.699Z,5.17
2019-04-11T23:15:55.168Z,4.77
2019-04-11T23:18:23.595Z,4.60
2019-04-11T23:20:52.010Z,5.40
2019-04-11T23:23:20.447Z,4.63
2019-04-11T23:25:48.862Z,6.43
2019-04-11T23:28:17.310Z,4.50
2019-04-11T23:30:49.589Z,4.30
2019-04-11T23:33:15.887Z,4.00
2019-04-11T23:35:44.320Z,6.77
2019-04-11T23:38:12.743Z,5.87
2019-04-11T23:40:41.171Z,5.13
2019-04-11T23:43:09.613Z,7.23
2019-04-11T23:45:38.027Z,5.87
2019-04-11T23:48:06.458Z,7.73
2019-04-11T23:50:55.167Z,5.60
2019-04-11T23:53:28.345Z,4.47
2019-04-11T23:55:54.372Z,5.30
2019-04-11T23:58:22.811Z,3.77
